Grizzly Air Cargo 5120


PASI
Sitka Rocky Gutierrez Airport
Sitka, Alaska, US
PAJN
Juneau International Airport
Juneau, Alaska, US

Activity Log

Date Flight Route Aircraft Duration
07/29/2019 GRZ514 HAWRD5 TNAKY B722 0h 28m
07/01/2019 GRZ514 HAWRD5 TNAKY B722 0h 35m
03/21/2019 GRZ514 HAWRD5 TNAKY B722 0h 40m

Route Details

Aircraft Information
Primary: Boeing 727-200F
Backup: Boeing 737-800BCF
Route Data
Distance: 97nm
Sched. Duration: 0h 35m
Avg. Duration: 0h 34m (-0m)
Times Flown: 3
Recm'd Route: HAWRD5 TNAKY
Planned Altitude: 16,000ft
Origin Wx: PASI 282001Z 12006KT 9SM UP BKN018 BKN024 OVC031 02/01 A2980 RMK AO2 UPB1957 P0000 T00220011
Dest. Wx: PAJN 281953Z 12010KT 10SM -RA FEW012 BKN029 OVC040 03/02 A2975 RMK AO2 SLP073 P0001 T00330017
Notes:

Financial History
Total Freight: 114,102lbs
Average Load: 38,034lbs/flt
Fuel Used: 13,569lbs
Avg. Fuel Used: 4,523lbs/flt
Fuel Expense: $15,333
Avg. Fuel Expense: $5,111
Avg. Fuel Cost: $1.13/lbs
Total Gross Income: $162,025
Pilot Pay: $687
Total Expenses: $17,655
Total Revenue: $128,623
Average Revenue: $54,008.28